Father Pat — WDG2791 — position and weather

sailwx.info

Track history (hours):
 
Tides and Currents Weather Stations Pressure Air Temp Water Temp Dewpoint Dewpoint Depression Visibility Wind Speed Wind Dir Waves Ship Positions

Father Pat

Owner: Marquette Transportation Company Gulf-Inland, LLC, Jefferson, LA. More information available from US FCC via Universal Licensing System and Coast Guard Vessel Documentation Center.

Last reported at 2017-Jun-09 05:20 UTC. Time now 2017-Jun-23 22:15 UTC.
Position N 29°29' W 094°51'.
Warning: this ship's position is 14 days out of date.

; draft 3 m.

Type: Towing. MMSI: 367519320.

Date/timePositionNaut miles runAvg speedWind from/ knotsBaromVisibWave heightAir tempDewpointWater temp
2017-Jun-09 05:20N 29°29' W 094°51'3 7.7
2017-Jun-09 05:01N 29°31' W 094°53'4 7.5
2017-Jun-09 04:30N 29°34' W 094°55'4 7.3
2017-Jun-09 04:00N 29°37' W 094°57'3 5.8
2017-Jun-09 03:28N 29°40' W 094°59'1 2.1
2017-Jun-09 03:00N 29°41' W 094°59'4 7.0
2017-Jun-09 02:28N 29°44' W 095°02'4 6.0
2017-Jun-09 01:51N 29°45' W 095°06'3 6.3
2017-Jun-09 01:18N 29°44' W 095°09'1 0.4
2017-Jun-08 23:02N 29°45' W 095°10'0 1.4
2017-Jun-08 22:51N 29°45' W 095°10'2 5.2
2017-Jun-08 22:22N 29°44' W 095°07'2 5.9
2017-Jun-08 22:00N 29°46' W 095°05'2 4.6
2017-Jun-08 21:30N 29°44' W 095°03'3 5.1
2017-Jun-08 21:00N 29°42' W 095°01'3 5.5
2017-Jun-08 20:30N 29°41' W 094°59'3 6.4
2017-Jun-08 20:00N 29°38' W 094°58'3 6.5
2017-Jun-08 19:30N 29°35' W 094°56'3 6.6
2017-Jun-08 19:00N 29°32' W 094°54'  
Track history (hours):
 
Tides and Currents Weather Stations Pressure Air Temp Water Temp Dewpoint Dewpoint Depression Visibility Wind Speed Wind Dir Waves Ship Positions

Father Pat

Owner: Marquette Transportation Company Gulf-Inland, LLC, Jefferson, LA. More information available from US FCC via Universal Licensing System and Coast Guard Vessel Documentation Center.

Last reported at 2017-Jun-09 05:20 UTC. Time now 2017-Jun-23 22:15 UTC.
Position N 29°29' W 094°51'.
Warning: this ship's position is 14 days out of date.

; draft 3 m.

Type: Towing. MMSI: 367519320.

Date/timePositionNaut miles runAvg speedWind from/ knotsBaromVisibWave heightAir tempDewpointWater temp
2017-Jun-09 05:20N 29°29' W 094°51'3 7.7
2017-Jun-09 05:01N 29°31' W 094°53'4 7.5
2017-Jun-09 04:30N 29°34' W 094°55'4 7.3
2017-Jun-09 04:00N 29°37' W 094°57'3 5.8
2017-Jun-09 03:28N 29°40' W 094°59'1 2.1
2017-Jun-09 03:00N 29°41' W 094°59'4 7.0
2017-Jun-09 02:28N 29°44' W 095°02'4 6.0
2017-Jun-09 01:51N 29°45' W 095°06'3 6.3
2017-Jun-09 01:18N 29°44' W 095°09'1 0.4
2017-Jun-08 23:02N 29°45' W 095°10'0 1.4
2017-Jun-08 22:51N 29°45' W 095°10'2 5.2
2017-Jun-08 22:22N 29°44' W 095°07'2 5.9
2017-Jun-08 22:00N 29°46' W 095°05'2 4.6
2017-Jun-08 21:30N 29°44' W 095°03'3 5.1
2017-Jun-08 21:00N 29°42' W 095°01'3 5.5
2017-Jun-08 20:30N 29°41' W 094°59'3 6.4
2017-Jun-08 20:00N 29°38' W 094°58'3 6.5
2017-Jun-08 19:30N 29°35' W 094°56'3 6.6
2017-Jun-08 19:00N 29°32' W 094°54'  

Dump ship's entire track history